Pagrindinis puslapis
METAR-TAF:

METAR-TAF

Oro uostai :

Pskovas, Rusija

platuma: 57-47-06N, ilguma: 028-23-54E, Aukštis: 47 m

Dabartinis oras

Ataskaita buvo paskelbta 42 minutes, ne 18:00 UTC
Vėjas 8 kt iš Rytų/Pietryčių
Temperatūra 2°C
Drėgmė 93%
Slėgis 999 hPa
Matomumas: 6000 m

METAR: ULOO 291800Z AUTO 11004MPS 6000 // 02/01 Q0999 RMK QFE745

Laikas: 21:42 (18:42 UTC)

Prognozė

Ataskaita buvo paskelbta 1 valandą ir 48 minutes, ne 16:54 UTC
Prognozė galioja nuo 29 metu 18 UTC su 30 metu 03 UTC
Vėjas 6 kt iš Pietryčių su gūsio iki 16 kt
Matomumas: 3100 m
Apsiniaukę ne aukštis 700 ft
rūkana
Laikinai
nuo 29 metu 18 UTC su 30 metu 03 UTC
Su prošvaistėmis ne aukštis 500 ft
Su prošvaistėmis ne aukštis 1500 ft, Liūtiniai kamuoliniai debesys.
lietus, rūkana

TAF: ULOO 291654Z 2918/3003 14003G08MPS 3100 BR OVC007 TEMPO 2918/3003 -SHRA BR BKN005 BKN015CB

Orai ataskaitas ir orų prognozės (METAR, TAF).

turimą stotys yra geltonos ir raudonos taškus žemėlapyje.

Perkelti pele per norėdami pamatyti stoties vardą.

Tada spustelėkite, norėdami matyti oro stebėjimo ir prognozės.

Norėdami pakeisti žemėlapį: spustelėkite ant žalios mygtukų su juodo kryžiaus žemyn,; žalią mygtuką su brūkšneliu, jei norite nutolinti; arba žalių rodyklių gretimoms žemėlapius.


METAR-TAF: